createdAt,value
2022-12-26T15:53:12.115Z,11.50
2022-12-26T15:56:00.268Z,11.80
2022-12-26T15:58:55.030Z,11.70
2022-12-26T16:01:37.969Z,11.90
2022-12-26T16:04:09.982Z,11.80
2022-12-26T16:07:04.360Z,12.00
2022-12-26T16:09:42.442Z,11.90
2022-12-26T16:12:23.230Z,11.90
2022-12-26T16:15:00.838Z,11.80
2022-12-26T16:17:29.458Z,11.80
2022-12-26T16:19:57.878Z,11.90
2022-12-26T16:22:47.171Z,11.60
2022-12-26T16:25:19.878Z,11.70
2022-12-26T16:27:50.003Z,11.90
2022-12-26T16:30:21.004Z,12.10
2022-12-26T16:32:49.335Z,11.80
2022-12-26T16:35:21.781Z,12.00
2022-12-26T16:37:50.947Z,11.90
2022-12-26T16:40:24.587Z,11.90
2022-12-26T16:43:01.163Z,11.80
2022-12-26T16:45:31.599Z,12.10
2022-12-26T16:47:59.931Z,11.60
2022-12-26T16:50:32.765Z,11.60
2022-12-26T16:53:10.656Z,11.70
2022-12-26T16:55:43.714Z,11.50
2022-12-26T16:58:23.647Z,11.60
2022-12-26T17:01:02.336Z,11.30
2022-12-26T17:03:39.332Z,11.50
2022-12-26T17:06:10.074Z,11.10
2022-12-26T17:08:42.876Z,11.10
2022-12-26T17:11:12.396Z,11.10
2022-12-26T17:13:40.648Z,11.00
2022-12-26T17:16:11.100Z,11.20
2022-12-26T17:18:46.572Z,11.00
2022-12-26T17:21:29.812Z,10.90
2022-12-26T17:24:21.227Z,10.60
2022-12-26T17:26:54.865Z,10.80
2022-12-26T17:29:47.660Z,10.90
2022-12-26T17:32:20.684Z,11.00
2022-12-26T17:34:49.173Z,11.00
2022-12-26T17:37:22.738Z,10.80
2022-12-26T17:40:03.699Z,10.80
2022-12-26T17:42:44.358Z,11.00
2022-12-26T17:45:17.390Z,11.00
2022-12-26T17:47:45.478Z,11.00
2022-12-26T17:50:14.182Z,10.50
2022-12-26T17:52:42.302Z,10.90
2022-12-26T17:55:17.773Z,11.20
2022-12-26T17:57:46.861Z,10.70
2022-12-26T18:00:19.822Z,10.90
2022-12-26T18:02:47.810Z,10.90
2022-12-26T18:05:16.482Z,11.00
2022-12-26T18:07:44.723Z,10.90
2022-12-26T18:10:18.907Z,10.70
2022-12-26T18:12:48.538Z,11.00
2022-12-26T18:15:16.743Z,10.70
2022-12-26T18:17:45.096Z,10.80
2022-12-26T18:20:17.615Z,10.70
2022-12-26T18:22:46.212Z,10.80
2022-12-26T18:25:14.467Z,10.80
2022-12-26T18:27:42.360Z,10.70
2022-12-26T18:30:16.350Z,10.80
2022-12-26T18:32:44.511Z,10.90
2022-12-26T18:35:12.707Z,10.90
2022-12-26T18:37:43.893Z,10.90
2022-12-26T18:40:26.240Z,10.70
2022-12-26T18:42:54.021Z,10.90
2022-12-26T18:45:23.072Z,10.60
2022-12-26T18:47:50.913Z,10.60
2022-12-26T18:50:18.840Z,10.50
2022-12-26T18:52:53.166Z,10.80
2022-12-26T18:55:21.807Z,10.60
2022-12-26T18:57:49.623Z,10.40
2022-12-26T19:00:18.423Z,10.50
2022-12-26T19:02:48.326Z,10.50
2022-12-26T19:05:19.191Z,10.60
2022-12-26T19:07:48.239Z,10.60
2022-12-26T19:10:17.222Z,10.40
2022-12-26T19:12:45.466Z,10.50
2022-12-26T19:15:14.563Z,10.60
2022-12-26T19:17:43.713Z,10.70
2022-12-26T19:20:18.944Z,10.10
2022-12-26T19:22:47.240Z,10.60
2022-12-26T19:25:15.824Z,10.40
2022-12-26T19:27:43.589Z,10.40
2022-12-26T19:30:12.444Z,10.50
2022-12-26T19:32:40.197Z,10.30
2022-12-26T19:35:08.947Z,10.20
2022-12-26T19:37:38.160Z,10.20
2022-12-26T19:40:07.737Z,10.40
2022-12-26T19:42:37.206Z,10.10
2022-12-26T19:45:05.293Z,10.20
2022-12-26T19:47:34.360Z,10.40
2022-12-26T19:50:02.248Z,10.40
2022-12-26T19:52:30.275Z,10.40
2022-12-26T19:54:59.434Z,10.40
2022-12-26T19:57:27.210Z,9.80
2022-12-26T19:59:54.981Z,10.30
2022-12-26T20:02:22.922Z,10.30
2022-12-26T20:04:50.786Z,10.20
2022-12-26T20:07:18.547Z,10.00
2022-12-26T20:09:46.458Z,10.30
2022-12-26T20:12:15.597Z,10.10
2022-12-26T20:14:43.368Z,10.20
2022-12-26T20:17:12.235Z,10.40
2022-12-26T20:19:40.351Z,10.60
2022-12-26T20:22:08.697Z,10.50
2022-12-26T20:24:36.502Z,10.40
2022-12-26T20:27:04.687Z,10.50
2022-12-26T20:29:33.928Z,9.90
2022-12-26T20:32:01.727Z,10.50
2022-12-26T20:34:30.073Z,10.20
2022-12-26T20:36:57.824Z,10.20
2022-12-26T20:39:25.997Z,10.20
2022-12-26T20:41:54.044Z,9.70
2022-12-26T20:44:22.038Z,9.90
2022-12-26T20:46:51.128Z,10.20
2022-12-26T20:49:18.926Z,9.80
2022-12-26T20:51:47.034Z,9.70
2022-12-26T20:54:16.791Z,9.80
2022-12-26T20:56:45.826Z,10.00
2022-12-26T20:59:13.805Z,9.60
2022-12-26T21:01:41.900Z,9.60
